sensor_id;sensor_type;location;lat;lon;timestamp;P1;durP1;ratioP1;P2;durP2;ratioP2
72547;SDS011;60570;50.848;6.776;2022-08-19T00:00:13;6.57;;;3.25;;
72547;SDS011;60570;50.848;6.776;2022-08-19T00:01:15;6.65;;;3.25;;
72547;SDS011;60570;50.848;6.776;2022-08-19T00:02:16;6.15;;;3.10;;
72547;SDS011;60570;50.848;6.776;2022-08-19T00:03:16;5.10;;;3.13;;
72547;SDS011;60570;50.848;6.776;2022-08-19T00:04:17;7.22;;;3.65;;
72547;SDS011;60570;50.848;6.776;2022-08-19T00:05:20;7.15;;;3.20;;
72547;SDS011;60570;50.848;6.776;2022-08-19T00:06:21;6.28;;;3.30;;
72547;SDS011;60570;50.848;6.776;2022-08-19T00:07:22;7.50;;;3.28;;
72547;SDS011;60570;50.848;6.776;2022-08-19T00:08:22;5.70;;;3.50;;
72547;SDS011;60570;50.848;6.776;2022-08-19T00:09:23;6.40;;;3.25;;
72547;SDS011;60570;50.848;6.776;2022-08-19T00:10:24;7.25;;;3.40;;
72547;SDS011;60570;50.848;6.776;2022-08-19T00:11:25;6.38;;;3.50;;
72547;SDS011;60570;50.848;6.776;2022-08-19T00:12:27;6.30;;;3.30;;
72547;SDS011;60570;50.848;6.776;2022-08-19T00:13:28;6.50;;;3.80;;
72547;SDS011;60570;50.848;6.776;2022-08-19T00:14:28;4.65;;;2.97;;
72547;SDS011;60570;50.848;6.776;2022-08-19T00:15:32;6.65;;;3.00;;
72547;SDS011;60570;50.848;6.776;2022-08-19T00:16:33;5.72;;;3.33;;
72547;SDS011;60570;50.848;6.776;2022-08-19T00:17:34;6.70;;;3.28;;
72547;SDS011;60570;50.848;6.776;2022-08-19T00:18:34;6.20;;;3.22;;
72547;SDS011;60570;50.848;6.776;2022-08-19T00:19:35;7.95;;;3.13;;
72547;SDS011;60570;50.848;6.776;2022-08-19T00:20:36;5.07;;;3.30;;
72547;SDS011;60570;50.848;6.776;2022-08-19T00:21:40;5.03;;;2.80;;
72547;SDS011;60570;50.848;6.776;2022-08-19T00:22:41;5.00;;;3.22;;
72547;SDS011;60570;50.848;6.776;2022-08-19T00:23:42;5.38;;;2.92;;
72547;SDS011;60570;50.848;6.776;2022-08-19T00:24:43;7.95;;;3.65;;
72547;SDS011;60570;50.848;6.776;2022-08-19T00:25:45;6.45;;;3.85;;
72547;SDS011;60570;50.848;6.776;2022-08-19T00:26:45;5.55;;;3.22;;
72547;SDS011;60570;50.848;6.776;2022-08-19T00:27:46;5.20;;;3.40;;
72547;SDS011;60570;50.848;6.776;2022-08-19T00:28:47;6.20;;;2.92;;
72547;SDS011;60570;50.848;6.776;2022-08-19T00:29:48;5.72;;;3.28;;
72547;SDS011;60570;50.848;6.776;2022-08-19T00:30:48;6.25;;;3.20;;
72547;SDS011;60570;50.848;6.776;2022-08-19T00:31:49;6.57;;;3.60;;
72547;SDS011;60570;50.848;6.776;2022-08-19T00:32:54;5.05;;;3.33;;
72547;SDS011;60570;50.848;6.776;2022-08-19T00:33:55;5.70;;;3.58;;
72547;SDS011;60570;50.848;6.776;2022-08-19T00:34:55;5.63;;;3.65;;
72547;SDS011;60570;50.848;6.776;2022-08-19T00:35:56;7.07;;;3.42;;
72547;SDS011;60570;50.848;6.776;2022-08-19T00:36:56;5.32;;;3.00;;
72547;SDS011;60570;50.848;6.776;2022-08-19T00:37:57;7.60;;;3.00;;
72547;SDS011;60570;50.848;6.776;2022-08-19T00:38:58;8.50;;;3.42;;
72547;SDS011;60570;50.848;6.776;2022-08-19T00:39:59;6.57;;;3.03;;
72547;SDS011;60570;50.848;6.776;2022-08-19T00:40:59;6.28;;;3.58;;
72547;SDS011;60570;50.848;6.776;2022-08-19T00:42:00;6.72;;;3.65;;
72547;SDS011;60570;50.848;6.776;2022-08-19T00:43:00;9.93;;;3.60;;
72547;SDS011;60570;50.848;6.776;2022-08-19T00:44:05;6.47;;;3.15;;
72547;SDS011;60570;50.848;6.776;2022-08-19T00:45:16;5.97;;;3.65;;
72547;SDS011;60570;50.848;6.776;2022-08-19T00:46:18;5.60;;;3.30;;
72547;SDS011;60570;50.848;6.776;2022-08-19T00:47:20;6.45;;;3.20;;
72547;SDS011;60570;50.848;6.776;2022-08-19T00:48:21;5.30;;;3.20;;
72547;SDS011;60570;50.848;6.776;2022-08-19T00:49:31;5.93;;;3.58;;
72547;SDS011;60570;50.848;6.776;2022-08-19T00:50:33;6.15;;;3.47;;
72547;SDS011;60570;50.848;6.776;2022-08-19T00:51:34;4.95;;;3.35;;
72547;SDS011;60570;50.848;6.776;2022-08-19T00:52:37;7.28;;;3.92;;
72547;SDS011;60570;50.848;6.776;2022-08-19T00:53:44;5.63;;;3.50;;
72547;SDS011;60570;50.848;6.776;2022-08-19T00:54:45;5.15;;;3.10;;
72547;SDS011;60570;50.848;6.776;2022-08-19T00:55:48;6.65;;;3.70;;
72547;SDS011;60570;50.848;6.776;2022-08-19T00:56:50;6.15;;;3.63;;
72547;SDS011;60570;50.848;6.776;2022-08-19T00:57:52;7.05;;;3.65;;
72547;SDS011;60570;50.848;6.776;2022-08-19T00:58:59;6.00;;;3.47;;
72547;SDS011;60570;50.848;6.776;2022-08-19T01:00:03;6.25;;;3.92;;
72547;SDS011;60570;50.848;6.776;2022-08-19T01:01:06;6.15;;;3.75;;
72547;SDS011;60570;50.848;6.776;2022-08-19T01:02:07;6.32;;;3.30;;
72547;SDS011;60570;50.848;6.776;2022-08-19T01:03:09;6.00;;;3.50;;
72547;SDS011;60570;50.848;6.776;2022-08-19T01:04:11;5.10;;;3.17;;
72547;SDS011;60570;50.848;6.776;2022-08-19T01:05:13;6.60;;;3.60;;
72547;SDS011;60570;50.848;6.776;2022-08-19T01:06:18;6.32;;;3.50;;
72547;SDS011;60570;50.848;6.776;2022-08-19T01:07:19;4.68;;;3.05;;
72547;SDS011;60570;50.848;6.776;2022-08-19T01:08:20;5.20;;;3.15;;
72547;SDS011;60570;50.848;6.776;2022-08-19T01:09:20;7.07;;;3.45;;
72547;SDS011;60570;50.848;6.776;2022-08-19T01:10:22;6.85;;;3.80;;
72547;SDS011;60570;50.848;6.776;2022-08-19T01:11:27;5.25;;;3.08;;
72547;SDS011;60570;50.848;6.776;2022-08-19T01:12:28;6.93;;;3.40;;
72547;SDS011;60570;50.848;6.776;2022-08-19T01:13:30;5.53;;;3.58;;
72547;SDS011;60570;50.848;6.776;2022-08-19T01:14:33;6.15;;;4.13;;
72547;SDS011;60570;50.848;6.776;2022-08-19T01:15:35;7.05;;;3.33;;
72547;SDS011;60570;50.848;6.776;2022-08-19T01:16:42;7.60;;;3.45;;
72547;SDS011;60570;50.848;6.776;2022-08-19T01:17:44;6.47;;;3.50;;
72547;SDS011;60570;50.848;6.776;2022-08-19T01:18:45;6.22;;;3.15;;
72547;SDS011;60570;50.848;6.776;2022-08-19T01:19:46;5.72;;;3.20;;
72547;SDS011;60570;50.848;6.776;2022-08-19T01:20:48;5.38;;;3.22;;
72547;SDS011;60570;50.848;6.776;2022-08-19T01:21:51;6.35;;;3.50;;
72547;SDS011;60570;50.848;6.776;2022-08-19T01:23:02;4.97;;;3.10;;
72547;SDS011;60570;50.848;6.776;2022-08-19T01:24:03;6.40;;;3.40;;
72547;SDS011;60570;50.848;6.776;2022-08-19T01:25:04;7.22;;;3.53;;
72547;SDS011;60570;50.848;6.776;2022-08-19T01:26:04;6.45;;;4.07;;
72547;SDS011;60570;50.848;6.776;2022-08-19T01:27:05;7.05;;;3.90;;
72547;SDS011;60570;50.848;6.776;2022-08-19T01:28:05;5.55;;;3.40;;
72547;SDS011;60570;50.848;6.776;2022-08-19T01:29:07;6.03;;;3.45;;
72547;SDS011;60570;50.848;6.776;2022-08-19T01:30:08;6.43;;;3.53;;
72547;SDS011;60570;50.848;6.776;2022-08-19T01:31:12;5.57;;;3.42;;
72547;SDS011;60570;50.848;6.776;2022-08-19T01:32:16;7.30;;;3.33;;
72547;SDS011;60570;50.848;6.776;2022-08-19T01:33:17;5.93;;;2.95;;
72547;SDS011;60570;50.848;6.776;2022-08-19T01:34:19;4.93;;;3.47;;
72547;SDS011;60570;50.848;6.776;2022-08-19T01:35:20;6.05;;;3.60;;
72547;SDS011;60570;50.848;6.776;2022-08-19T01:36:27;7.13;;;3.63;;
72547;SDS011;60570;50.848;6.776;2022-08-19T01:37:28;5.32;;;3.90;;
72547;SDS011;60570;50.848;6.776;2022-08-19T01:38:30;5.43;;;3.35;;
72547;SDS011;60570;50.848;6.776;2022-08-19T01:39:31;6.10;;;3.50;;
72547;SDS011;60570;50.848;6.776;2022-08-19T01:40:32;5.30;;;3.17;;
72547;SDS011;60570;50.848;6.776;2022-08-19T01:41:34;4.80;;;3.20;;
72547;SDS011;60570;50.848;6.776;2022-08-19T01:42:35;5.93;;;3.47;;
72547;SDS011;60570;50.848;6.776;2022-08-19T01:43:36;7.45;;;3.45;;
72547;SDS011;60570;50.848;6.776;2022-08-19T01:44:38;6.68;;;3.80;;
72547;SDS011;60570;50.848;6.776;2022-08-19T01:45:41;6.57;;;3.60;;
72547;SDS011;60570;50.848;6.776;2022-08-19T01:46:42;6.05;;;3.60;;
72547;SDS011;60570;50.848;6.776;2022-08-19T01:47:43;6.32;;;3.70;;
72547;SDS011;60570;50.848;6.776;2022-08-19T01:48:44;5.82;;;3.30;;
72547;SDS011;60570;50.848;6.776;2022-08-19T01:49:46;5.40;;;3.78;;
72547;SDS011;60570;50.848;6.776;2022-08-19T01:50:46;6.28;;;3.67;;
72547;SDS011;60570;50.848;6.776;2022-08-19T01:51:48;5.32;;;3.25;;
72547;SDS011;60570;50.848;6.776;2022-08-19T01:52:49;6.70;;;3.80;;
72547;SDS011;60570;50.848;6.776;2022-08-19T01:53:50;6.47;;;3.67;;
72547;SDS011;60570;50.848;6.776;2022-08-19T01:54:51;5.32;;;3.25;;
72547;SDS011;60570;50.848;6.776;2022-08-19T01:55:51;9.95;;;3.95;;
72547;SDS011;60570;50.848;6.776;2022-08-19T01:56:53;6.63;;;4.15;;
72547;SDS011;60570;50.848;6.776;2022-08-19T01:58:00;5.32;;;3.33;;
72547;SDS011;60570;50.848;6.776;2022-08-19T01:59:04;6.45;;;3.50;;
72547;SDS011;60570;50.848;6.776;2022-08-19T02:00:11;5.60;;;3.50;;
72547;SDS011;60570;50.848;6.776;2022-08-19T02:01:15;5.30;;;3.35;;
72547;SDS011;60570;50.848;6.776;2022-08-19T02:02:15;7.78;;;3.60;;
72547;SDS011;60570;50.848;6.776;2022-08-19T02:03:16;6.07;;;3.75;;
72547;SDS011;60570;50.848;6.776;2022-08-19T02:04:16;6.03;;;3.53;;
72547;SDS011;60570;50.848;6.776;2022-08-19T02:05:17;6.00;;;3.83;;
72547;SDS011;60570;50.848;6.776;2022-08-19T02:06:18;5.22;;;3.65;;
72547;SDS011;60570;50.848;6.776;2022-08-19T02:07:20;7.70;;;3.58;;
72547;SDS011;60570;50.848;6.776;2022-08-19T02:08:24;6.07;;;3.47;;
72547;SDS011;60570;50.848;6.776;2022-08-19T02:09:24;5.85;;;3.50;;
72547;SDS011;60570;50.848;6.776;2022-08-19T02:10:24;5.80;;;3.85;;
72547;SDS011;60570;50.848;6.776;2022-08-19T02:11:27;6.15;;;3.78;;
72547;SDS011;60570;50.848;6.776;2022-08-19T02:12:31;9.18;;;3.55;;
72547;SDS011;60570;50.848;6.776;2022-08-19T02:13:32;6.78;;;3.75;;
72547;SDS011;60570;50.848;6.776;2022-08-19T02:14:34;5.63;;;3.40;;
72547;SDS011;60570;50.848;6.776;2022-08-19T02:15:35;5.53;;;3.47;;
72547;SDS011;60570;50.848;6.776;2022-08-19T02:16:36;6.43;;;3.72;;
72547;SDS011;60570;50.848;6.776;2022-08-19T02:17:38;7.45;;;3.40;;
72547;SDS011;60570;50.848;6.776;2022-08-19T02:18:39;6.22;;;3.80;;
72547;SDS011;60570;50.848;6.776;2022-08-19T02:19:39;6.28;;;3.90;;
72547;SDS011;60570;50.848;6.776;2022-08-19T02:20:40;7.05;;;4.25;;
72547;SDS011;60570;50.848;6.776;2022-08-19T02:21:42;7.65;;;3.63;;
72547;SDS011;60570;50.848;6.776;2022-08-19T02:22:43;5.85;;;3.53;;
72547;SDS011;60570;50.848;6.776;2022-08-19T02:23:44;6.13;;;3.80;;
72547;SDS011;60570;50.848;6.776;2022-08-19T02:24:45;5.30;;;3.42;;
72547;SDS011;60570;50.848;6.776;2022-08-19T02:25:47;5.28;;;3.40;;
72547;SDS011;60570;50.848;6.776;2022-08-19T02:26:47;6.38;;;3.58;;
72547;SDS011;60570;50.848;6.776;2022-08-19T02:27:48;6.13;;;3.70;;
72547;SDS011;60570;50.848;6.776;2022-08-19T02:28:48;7.60;;;3.63;;
72547;SDS011;60570;50.848;6.776;2022-08-19T02:29:49;6.10;;;3.53;;
72547;SDS011;60570;50.848;6.776;2022-08-19T02:30:50;6.70;;;3.67;;
72547;SDS011;60570;50.848;6.776;2022-08-19T02:31:50;6.45;;;4.10;;
72547;SDS011;60570;50.848;6.776;2022-08-19T02:32:51;6.47;;;3.90;;
72547;SDS011;60570;50.848;6.776;2022-08-19T02:33:52;9.45;;;4.68;;
72547;SDS011;60570;50.848;6.776;2022-08-19T02:34:55;6.82;;;3.97;;
72547;SDS011;60570;50.848;6.776;2022-08-19T02:35:55;5.90;;;3.95;;
72547;SDS011;60570;50.848;6.776;2022-08-19T02:36:56;5.63;;;3.88;;
72547;SDS011;60570;50.848;6.776;2022-08-19T02:37:56;5.50;;;3.55;;
72547;SDS011;60570;50.848;6.776;2022-08-19T02:39:15;5.47;;;3.83;;
72547;SDS011;60570;50.848;6.776;2022-08-19T02:40:15;7.50;;;3.80;;
72547;SDS011;60570;50.848;6.776;2022-08-19T02:41:18;6.10;;;4.10;;
72547;SDS011;60570;50.848;6.776;2022-08-19T02:42:21;6.55;;;3.45;;
72547;SDS011;60570;50.848;6.776;2022-08-19T02:43:22;7.30;;;4.15;;
72547;SDS011;60570;50.848;6.776;2022-08-19T02:44:23;5.57;;;3.72;;
72547;SDS011;60570;50.848;6.776;2022-08-19T02:45:24;6.07;;;4.25;;
72547;SDS011;60570;50.848;6.776;2022-08-19T02:46:26;8.70;;;3.97;;
72547;SDS011;60570;50.848;6.776;2022-08-19T02:47:31;5.95;;;3.70;;
72547;SDS011;60570;50.848;6.776;2022-08-19T02:48:31;6.03;;;4.28;;
72547;SDS011;60570;50.848;6.776;2022-08-19T02:49:32;6.15;;;4.10;;
72547;SDS011;60570;50.848;6.776;2022-08-19T02:50:33;5.40;;;3.58;;
72547;SDS011;60570;50.848;6.776;2022-08-19T02:51:39;6.78;;;3.80;;
72547;SDS011;60570;50.848;6.776;2022-08-19T02:52:41;5.70;;;3.50;;
72547;SDS011;60570;50.848;6.776;2022-08-19T02:53:41;8.77;;;3.80;;
72547;SDS011;60570;50.848;6.776;2022-08-19T02:54:42;6.68;;;4.10;;
72547;SDS011;60570;50.848;6.776;2022-08-19T02:55:46;5.00;;;3.53;;
72547;SDS011;60570;50.848;6.776;2022-08-19T02:56:47;5.68;;;3.90;;
72547;SDS011;60570;50.848;6.776;2022-08-19T02:57:47;7.03;;;3.80;;
72547;SDS011;60570;50.848;6.776;2022-08-19T02:58:48;5.70;;;3.65;;
72547;SDS011;60570;50.848;6.776;2022-08-19T02:59:48;5.95;;;3.67;;
72547;SDS011;60570;50.848;6.776;2022-08-19T03:00:51;6.75;;;4.05;;
72547;SDS011;60570;50.848;6.776;2022-08-19T03:01:53;5.95;;;3.80;;
72547;SDS011;60570;50.848;6.776;2022-08-19T03:02:53;6.18;;;3.78;;
72547;SDS011;60570;50.848;6.776;2022-08-19T03:03:54;6.18;;;3.65;;
72547;SDS011;60570;50.848;6.776;2022-08-19T03:04:55;6.65;;;3.58;;
72547;SDS011;60570;50.848;6.776;2022-08-19T03:06:06;8.00;;;3.38;;
72547;SDS011;60570;50.848;6.776;2022-08-19T03:07:09;6.57;;;4.10;;
72547;SDS011;60570;50.848;6.776;2022-08-19T03:08:13;6.18;;;3.53;;
72547;SDS011;60570;50.848;6.776;2022-08-19T03:09:14;5.95;;;3.92;;
72547;SDS011;60570;50.848;6.776;2022-08-19T03:10:16;6.32;;;3.80;;
72547;SDS011;60570;50.848;6.776;2022-08-19T03:11:18;6.13;;;3.65;;
72547;SDS011;60570;50.848;6.776;2022-08-19T03:12:26;5.82;;;3.40;;
72547;SDS011;60570;50.848;6.776;2022-08-19T03:13:26;6.43;;;3.78;;
72547;SDS011;60570;50.848;6.776;2022-08-19T03:14:29;5.45;;;3.75;;
72547;SDS011;60570;50.848;6.776;2022-08-19T03:15:31;6.53;;;3.95;;
72547;SDS011;60570;50.848;6.776;2022-08-19T03:16:32;6.00;;;4.10;;
72547;SDS011;60570;50.848;6.776;2022-08-19T03:17:39;7.65;;;5.03;;
72547;SDS011;60570;50.848;6.776;2022-08-19T03:18:40;5.47;;;3.83;;
72547;SDS011;60570;50.848;6.776;2022-08-19T03:19:40;6.10;;;3.95;;
72547;SDS011;60570;50.848;6.776;2022-08-19T03:20:42;5.97;;;3.78;;
72547;SDS011;60570;50.848;6.776;2022-08-19T03:21:43;5.40;;;3.33;;
72547;SDS011;60570;50.848;6.776;2022-08-19T03:22:47;6.80;;;3.97;;
72547;SDS011;60570;50.848;6.776;2022-08-19T03:23:47;8.98;;;4.05;;
72547;SDS011;60570;50.848;6.776;2022-08-19T03:24:48;7.03;;;4.47;;
72547;SDS011;60570;50.848;6.776;2022-08-19T03:25:49;6.22;;;4.15;;
72547;SDS011;60570;50.848;6.776;2022-08-19T03:26:54;6.95;;;4.53;;
72547;SDS011;60570;50.848;6.776;2022-08-19T03:27:58;6.13;;;3.90;;
72547;SDS011;60570;50.848;6.776;2022-08-19T03:29:01;6.75;;;4.00;;
72547;SDS011;60570;50.848;6.776;2022-08-19T03:30:03;6.82;;;4.10;;
72547;SDS011;60570;50.848;6.776;2022-08-19T03:31:06;5.65;;;4.00;;
72547;SDS011;60570;50.848;6.776;2022-08-19T03:32:10;5.80;;;4.13;;
72547;SDS011;60570;50.848;6.776;2022-08-19T03:33:10;5.65;;;3.83;;
72547;SDS011;60570;50.848;6.776;2022-08-19T03:34:15;5.82;;;3.72;;
72547;SDS011;60570;50.848;6.776;2022-08-19T03:35:19;6.00;;;3.90;;
72547;SDS011;60570;50.848;6.776;2022-08-19T03:36:21;7.45;;;4.32;;
72547;SDS011;60570;50.848;6.776;2022-08-19T03:37:24;6.90;;;4.38;;
72547;SDS011;60570;50.848;6.776;2022-08-19T03:38:25;6.63;;;4.38;;
72547;SDS011;60570;50.848;6.776;2022-08-19T03:39:26;6.25;;;3.92;;
72547;SDS011;60570;50.848;6.776;2022-08-19T03:40:27;9.30;;;4.20;;
72547;SDS011;60570;50.848;6.776;2022-08-19T03:41:31;6.47;;;4.30;;
72547;SDS011;60570;50.848;6.776;2022-08-19T03:42:33;6.68;;;4.22;;
72547;SDS011;60570;50.848;6.776;2022-08-19T03:43:36;7.05;;;4.10;;
72547;SDS011;60570;50.848;6.776;2022-08-19T03:44:38;6.75;;;3.75;;
72547;SDS011;60570;50.848;6.776;2022-08-19T03:45:38;6.85;;;4.03;;
72547;SDS011;60570;50.848;6.776;2022-08-19T03:46:39;6.05;;;3.80;;
72547;SDS011;60570;50.848;6.776;2022-08-19T03:47:39;7.60;;;4.72;;
72547;SDS011;60570;50.848;6.776;2022-08-19T03:48:40;6.55;;;4.20;;
72547;SDS011;60570;50.848;6.776;2022-08-19T03:49:42;6.82;;;4.10;;
72547;SDS011;60570;50.848;6.776;2022-08-19T03:50:43;5.80;;;3.55;;
72547;SDS011;60570;50.848;6.776;2022-08-19T03:51:44;6.85;;;4.30;;
72547;SDS011;60570;50.848;6.776;2022-08-19T03:52:49;5.85;;;4.13;;
72547;SDS011;60570;50.848;6.776;2022-08-19T03:54:52;8.32;;;4.25;;
72547;SDS011;60570;50.848;6.776;2022-08-19T03:55:52;6.32;;;4.60;;
72547;SDS011;60570;50.848;6.776;2022-08-19T03:56:54;6.60;;;3.97;;
72547;SDS011;60570;50.848;6.776;2022-08-19T03:57:56;7.07;;;3.97;;
72547;SDS011;60570;50.848;6.776;2022-08-19T03:58:57;6.75;;;3.92;;
72547;SDS011;60570;50.848;6.776;2022-08-19T03:59:59;5.30;;;3.70;;
72547;SDS011;60570;50.848;6.776;2022-08-19T04:01:00;6.95;;;4.10;;
72547;SDS011;60570;50.848;6.776;2022-08-19T04:02:01;7.05;;;3.90;;
72547;SDS011;60570;50.848;6.776;2022-08-19T04:03:05;7.50;;;4.18;;
72547;SDS011;60570;50.848;6.776;2022-08-19T04:04:06;6.70;;;4.32;;
72547;SDS011;60570;50.848;6.776;2022-08-19T04:05:07;6.88;;;4.28;;
72547;SDS011;60570;50.848;6.776;2022-08-19T04:06:15;8.65;;;4.53;;
72547;SDS011;60570;50.848;6.776;2022-08-19T04:07:18;7.30;;;4.70;;
72547;SDS011;60570;50.848;6.776;2022-08-19T04:08:21;6.65;;;4.35;;
72547;SDS011;60570;50.848;6.776;2022-08-19T04:09:22;6.78;;;4.30;;
72547;SDS011;60570;50.848;6.776;2022-08-19T04:10:22;6.50;;;4.30;;
72547;SDS011;60570;50.848;6.776;2022-08-19T04:11:28;6.10;;;3.90;;
72547;SDS011;60570;50.848;6.776;2022-08-19T04:12:30;7.32;;;4.15;;
72547;SDS011;60570;50.848;6.776;2022-08-19T04:13:31;7.53;;;4.68;;
72547;SDS011;60570;50.848;6.776;2022-08-19T04:14:32;6.10;;;4.57;;
72547;SDS011;60570;50.848;6.776;2022-08-19T04:15:33;6.05;;;3.83;;
72547;SDS011;60570;50.848;6.776;2022-08-19T04:16:39;6.25;;;4.18;;
72547;SDS011;60570;50.848;6.776;2022-08-19T04:17:39;6.60;;;4.22;;
72547;SDS011;60570;50.848;6.776;2022-08-19T04:18:40;6.95;;;4.25;;
72547;SDS011;60570;50.848;6.776;2022-08-19T04:19:41;6.95;;;4.57;;
72547;SDS011;60570;50.848;6.776;2022-08-19T04:20:43;8.30;;;4.38;;
72547;SDS011;60570;50.848;6.776;2022-08-19T04:21:47;6.50;;;4.25;;
72547;SDS011;60570;50.848;6.776;2022-08-19T04:22:49;7.88;;;4.43;;
72547;SDS011;60570;50.848;6.776;2022-08-19T04:23:50;7.50;;;4.50;;
72547;SDS011;60570;50.848;6.776;2022-08-19T04:24:51;6.75;;;4.38;;
72547;SDS011;60570;50.848;6.776;2022-08-19T04:25:51;6.10;;;4.10;;
72547;SDS011;60570;50.848;6.776;2022-08-19T04:26:52;7.18;;;4.35;;
72547;SDS011;60570;50.848;6.776;2022-08-19T04:27:52;5.72;;;3.97;;
72547;SDS011;60570;50.848;6.776;2022-08-19T04:28:53;7.93;;;4.40;;
72547;SDS011;60570;50.848;6.776;2022-08-19T04:29:55;6.40;;;4.57;;
72547;SDS011;60570;50.848;6.776;2022-08-19T04:30:55;7.00;;;4.63;;
72547;SDS011;60570;50.848;6.776;2022-08-19T04:31:56;6.18;;;4.32;;
72547;SDS011;60570;50.848;6.776;2022-08-19T04:32:58;8.82;;;4.20;;
72547;SDS011;60570;50.848;6.776;2022-08-19T04:33:59;7.10;;;4.28;;
72547;SDS011;60570;50.848;6.776;2022-08-19T04:35:02;6.68;;;4.53;;
72547;SDS011;60570;50.848;6.776;2022-08-19T04:36:02;7.10;;;4.57;;
72547;SDS011;60570;50.848;6.776;2022-08-19T04:37:05;6.45;;;4.40;;
72547;SDS011;60570;50.848;6.776;2022-08-19T04:38:11;9.18;;;5.00;;
72547;SDS011;60570;50.848;6.776;2022-08-19T04:39:13;7.72;;;4.47;;
72547;SDS011;60570;50.848;6.776;2022-08-19T04:40:15;6.05;;;4.40;;
72547;SDS011;60570;50.848;6.776;2022-08-19T04:41:34;7.60;;;4.63;;
72547;SDS011;60570;50.848;6.776;2022-08-19T04:42:53;7.45;;;4.97;;
72547;SDS011;60570;50.848;6.776;2022-08-19T04:43:53;9.18;;;5.15;;
72547;SDS011;60570;50.848;6.776;2022-08-19T04:44:54;7.53;;;4.22;;
72547;SDS011;60570;50.848;6.776;2022-08-19T04:45:54;7.10;;;4.47;;
72547;SDS011;60570;50.848;6.776;2022-08-19T04:46:56;6.45;;;4.90;;
72547;SDS011;60570;50.848;6.776;2022-08-19T04:47:56;7.80;;;4.38;;
72547;SDS011;60570;50.848;6.776;2022-08-19T04:48:57;8.63;;;4.68;;
72547;SDS011;60570;50.848;6.776;2022-08-19T04:49:59;6.07;;;4.38;;
72547;SDS011;60570;50.848;6.776;2022-08-19T04:51:00;6.88;;;4.25;;
72547;SDS011;60570;50.848;6.776;2022-08-19T04:52:01;6.13;;;4.50;;
72547;SDS011;60570;50.848;6.776;2022-08-19T04:53:01;6.57;;;4.32;;
72547;SDS011;60570;50.848;6.776;2022-08-19T04:54:02;8.27;;;4.85;;
72547;SDS011;60570;50.848;6.776;2022-08-19T04:55:03;7.70;;;4.63;;
72547;SDS011;60570;50.848;6.776;2022-08-19T04:56:24;7.93;;;4.53;;
72547;SDS011;60570;50.848;6.776;2022-08-19T04:57:26;9.77;;;4.13;;
72547;SDS011;60570;50.848;6.776;2022-08-19T04:58:26;6.93;;;5.05;;
72547;SDS011;60570;50.848;6.776;2022-08-19T04:59:27;8.10;;;4.90;;
72547;SDS011;60570;50.848;6.776;2022-08-19T05:00:27;7.18;;;4.63;;
72547;SDS011;60570;50.848;6.776;2022-08-19T05:01:28;8.80;;;4.32;;
72547;SDS011;60570;50.848;6.776;2022-08-19T05:02:30;6.70;;;4.70;;
72547;SDS011;60570;50.848;6.776;2022-08-19T05:03:31;7.45;;;4.53;;
72547;SDS011;60570;50.848;6.776;2022-08-19T05:04:33;6.75;;;4.40;;
72547;SDS011;60570;50.848;6.776;2022-08-19T05:05:37;7.63;;;4.53;;
72547;SDS011;60570;50.848;6.776;2022-08-19T05:06:39;6.40;;;4.70;;
72547;SDS011;60570;50.848;6.776;2022-08-19T05:07:39;6.43;;;4.20;;
72547;SDS011;60570;50.848;6.776;2022-08-19T05:08:41;6.53;;;4.32;;
72547;SDS011;60570;50.848;6.776;2022-08-19T05:09:43;7.40;;;4.95;;
72547;SDS011;60570;50.848;6.776;2022-08-19T05:10:43;7.80;;;4.63;;
72547;SDS011;60570;50.848;6.776;2022-08-19T05:11:44;6.45;;;4.32;;
72547;SDS011;60570;50.848;6.776;2022-08-19T05:12:44;7.57;;;5.30;;
72547;SDS011;60570;50.848;6.776;2022-08-19T05:13:46;7.30;;;4.95;;
72547;SDS011;60570;50.848;6.776;2022-08-19T05:14:48;7.50;;;4.40;;
72547;SDS011;60570;50.848;6.776;2022-08-19T05:15:53;7.70;;;5.00;;
72547;SDS011;60570;50.848;6.776;2022-08-19T05:16:55;6.90;;;4.55;;
72547;SDS011;60570;50.848;6.776;2022-08-19T05:17:55;7.68;;;5.05;;
72547;SDS011;60570;50.848;6.776;2022-08-19T05:19:14;7.35;;;4.72;;
72547;SDS011;60570;50.848;6.776;2022-08-19T05:20:33;6.88;;;4.32;;
72547;SDS011;60570;50.848;6.776;2022-08-19T05:21:52;6.50;;;4.57;;
72547;SDS011;60570;50.848;6.776;2022-08-19T05:23:11;8.30;;;4.57;;
72547;SDS011;60570;50.848;6.776;2022-08-19T05:24:15;6.80;;;4.60;;
72547;SDS011;60570;50.848;6.776;2022-08-19T05:25:17;6.80;;;4.75;;
72547;SDS011;60570;50.848;6.776;2022-08-19T05:26:20;8.23;;;4.57;;
72547;SDS011;60570;50.848;6.776;2022-08-19T05:27:20;8.05;;;4.78;;
72547;SDS011;60570;50.848;6.776;2022-08-19T05:28:21;7.50;;;5.38;;
72547;SDS011;60570;50.848;6.776;2022-08-19T05:29:22;7.93;;;4.65;;
72547;SDS011;60570;50.848;6.776;2022-08-19T05:30:25;9.20;;;5.07;;
72547;SDS011;60570;50.848;6.776;2022-08-19T05:31:25;6.75;;;4.55;;
72547;SDS011;60570;50.848;6.776;2022-08-19T05:32:25;7.95;;;5.07;;
72547;SDS011;60570;50.848;6.776;2022-08-19T05:33:26;7.32;;;5.05;;
72547;SDS011;60570;50.848;6.776;2022-08-19T05:34:27;10.27;;;5.28;;
72547;SDS011;60570;50.848;6.776;2022-08-19T05:35:28;7.28;;;5.00;;
72547;SDS011;60570;50.848;6.776;2022-08-19T05:36:28;6.70;;;5.00;;
72547;SDS011;60570;50.848;6.776;2022-08-19T05:37:34;8.52;;;5.72;;
72547;SDS011;60570;50.848;6.776;2022-08-19T05:38:35;9.18;;;5.00;;
72547;SDS011;60570;50.848;6.776;2022-08-19T05:39:36;7.28;;;4.95;;
72547;SDS011;60570;50.848;6.776;2022-08-19T05:40:38;8.95;;;5.07;;
72547;SDS011;60570;50.848;6.776;2022-08-19T05:41:42;8.70;;;5.40;;
72547;SDS011;60570;50.848;6.776;2022-08-19T05:42:47;7.32;;;5.03;;
72547;SDS011;60570;50.848;6.776;2022-08-19T05:43:49;7.22;;;4.80;;
72547;SDS011;60570;50.848;6.776;2022-08-19T05:44:50;7.13;;;4.93;;
72547;SDS011;60570;50.848;6.776;2022-08-19T05:45:51;7.78;;;5.03;;
72547;SDS011;60570;50.848;6.776;2022-08-19T05:46:51;7.53;;;5.47;;
72547;SDS011;60570;50.848;6.776;2022-08-19T05:47:53;8.27;;;5.53;;
72547;SDS011;60570;50.848;6.776;2022-08-19T05:48:54;7.70;;;5.00;;
72547;SDS011;60570;50.848;6.776;2022-08-19T05:49:56;7.60;;;4.75;;
72547;SDS011;60570;50.848;6.776;2022-08-19T05:50:56;9.10;;;5.30;;
72547;SDS011;60570;50.848;6.776;2022-08-19T05:51:58;7.78;;;4.47;;
72547;SDS011;60570;50.848;6.776;2022-08-19T05:53:04;8.05;;;5.28;;
72547;SDS011;60570;50.848;6.776;2022-08-19T05:54:05;8.35;;;5.20;;
72547;SDS011;60570;50.848;6.776;2022-08-19T05:55:07;8.73;;;5.43;;
72547;SDS011;60570;50.848;6.776;2022-08-19T05:56:09;8.13;;;5.57;;
72547;SDS011;60570;50.848;6.776;2022-08-19T05:57:11;7.35;;;5.00;;
72547;SDS011;60570;50.848;6.776;2022-08-19T05:58:12;8.25;;;5.00;;
72547;SDS011;60570;50.848;6.776;2022-08-19T05:59:13;8.90;;;5.35;;
72547;SDS011;60570;50.848;6.776;2022-08-19T06:00:14;7.38;;;5.03;;
72547;SDS011;60570;50.848;6.776;2022-08-19T06:01:16;9.60;;;5.70;;
72547;SDS011;60570;50.848;6.776;2022-08-19T06:02:18;8.57;;;5.68;;
72547;SDS011;60570;50.848;6.776;2022-08-19T06:03:19;7.80;;;4.97;;
72547;SDS011;60570;50.848;6.776;2022-08-19T06:04:19;8.95;;;5.30;;
72547;SDS011;60570;50.848;6.776;2022-08-19T06:05:20;9.35;;;5.30;;
72547;SDS011;60570;50.848;6.776;2022-08-19T06:06:20;7.47;;;5.30;;
72547;SDS011;60570;50.848;6.776;2022-08-19T06:07:21;10.00;;;5.95;;
72547;SDS011;60570;50.848;6.776;2022-08-19T06:08:22;9.52;;;6.05;;
72547;SDS011;60570;50.848;6.776;2022-08-19T06:09:22;9.05;;;5.70;;
72547;SDS011;60570;50.848;6.776;2022-08-19T06:10:23;9.75;;;5.57;;
72547;SDS011;60570;50.848;6.776;2022-08-19T06:11:34;9.45;;;5.00;;
72547;SDS011;60570;50.848;6.776;2022-08-19T06:12:38;10.90;;;5.75;;
72547;SDS011;60570;50.848;6.776;2022-08-19T06:13:39;10.25;;;6.10;;
72547;SDS011;60570;50.848;6.776;2022-08-19T06:14:39;9.77;;;5.50;;
72547;SDS011;60570;50.848;6.776;2022-08-19T06:15:41;10.30;;;5.95;;